createdAt,value
2023-06-10T00:03:16.424Z,3.92
2023-06-10T00:07:29.299Z,3.28
2023-06-10T00:11:42.583Z,3.47
2023-06-10T00:15:55.331Z,3.63
2023-06-10T00:20:10.861Z,3.97
2023-06-10T00:24:23.960Z,3.58
2023-06-10T00:28:36.382Z,3.45
2023-06-10T00:32:48.890Z,3.88
2023-06-10T00:37:11.417Z,3.58
2023-06-10T00:41:23.725Z,3.88
2023-06-10T00:45:36.251Z,4.13
2023-06-10T00:49:49.630Z,3.63
2023-06-10T00:54:15.430Z,3.50
2023-06-10T00:58:28.429Z,3.90
2023-06-10T01:02:40.877Z,3.28
2023-06-10T01:07:04.738Z,3.40
2023-06-10T01:11:23.394Z,3.00
2023-06-10T01:15:37.142Z,3.38
2023-06-10T01:19:57.278Z,3.42
2023-06-10T01:24:12.838Z,3.92
2023-06-10T01:28:47.324Z,4.00
2023-06-10T01:33:01.663Z,3.67
2023-06-10T01:37:26.723Z,3.72
2023-06-10T01:41:40.937Z,3.78
2023-06-10T01:45:53.273Z,3.65
2023-06-10T01:50:15.638Z,3.60
2023-06-10T01:54:27.986Z,3.65
2023-06-10T01:58:40.514Z,3.38
2023-06-10T02:02:53.300Z,3.85
2023-06-10T02:07:15.657Z,3.85
2023-06-10T02:11:28.646Z,3.95
2023-06-10T02:15:41.027Z,3.47
2023-06-10T02:19:56.271Z,4.03
2023-06-10T02:24:09.266Z,4.00
2023-06-10T02:28:21.726Z,3.65
2023-06-10T02:32:34.152Z,3.92
2023-06-10T02:36:46.506Z,3.60
2023-06-10T02:40:58.822Z,3.60
2023-06-10T02:45:11.713Z,4.07
2023-06-10T02:49:25.712Z,3.75
2023-06-10T02:53:38.111Z,3.70
2023-06-10T02:57:50.456Z,3.90
2023-06-10T03:02:03.722Z,4.30
2023-06-10T03:06:16.105Z,4.53
2023-06-10T03:10:28.748Z,4.35
2023-06-10T03:14:41.164Z,4.85
2023-06-10T03:18:54.036Z,4.88
2023-06-10T03:23:08.326Z,5.13
2023-06-10T03:27:20.815Z,5.32
2023-06-10T03:31:33.285Z,5.10
2023-06-10T03:35:55.605Z,4.80
2023-06-10T03:40:10.288Z,4.25
2023-06-10T03:44:23.757Z,4.38
2023-06-10T03:48:36.279Z,4.40
2023-06-10T03:52:48.859Z,4.50
2023-06-10T03:57:02.553Z,4.30
2023-06-10T04:01:19.925Z,5.32
2023-06-10T04:05:32.523Z,4.63
2023-06-10T04:09:44.849Z,5.03
2023-06-10T04:13:57.197Z,5.15
2023-06-10T04:18:10.317Z,5.15
2023-06-10T04:22:22.708Z,5.15
2023-06-10T04:26:37.788Z,5.30
2023-06-10T04:30:51.639Z,5.47
2023-06-10T04:35:04.965Z,5.30
2023-06-10T04:39:18.742Z,5.78
2023-06-10T04:43:32.468Z,5.50
2023-06-10T04:47:45.412Z,5.38
2023-06-10T04:51:57.816Z,5.82
2023-06-10T04:56:10.226Z,5.10
2023-06-10T05:00:23.481Z,5.75
2023-06-10T05:04:36.653Z,4.72
2023-06-10T05:08:49.048Z,5.15
2023-06-10T05:13:01.551Z,5.07
2023-06-10T05:17:14.796Z,5.13
2023-06-10T05:21:27.134Z,5.65
2023-06-10T05:25:41.055Z,4.32
2023-06-10T05:30:05.245Z,5.22
2023-06-10T05:34:17.628Z,5.47
2023-06-10T05:38:39.948Z,5.10
2023-06-10T05:42:52.301Z,5.88
2023-06-10T05:47:04.955Z,5.18
2023-06-10T05:51:17.369Z,5.13
2023-06-10T05:55:29.720Z,5.47
2023-06-10T05:59:42.147Z,5.22
2023-06-10T06:03:54.514Z,5.25
2023-06-10T06:08:07.277Z,5.68
2023-06-10T06:12:19.636Z,5.18
2023-06-10T06:16:32.673Z,5.38
2023-06-10T06:20:45.102Z,5.10
2023-06-10T06:25:08.223Z,5.50
2023-06-10T06:29:21.224Z,4.90
2023-06-10T06:33:33.556Z,4.85
2023-06-10T06:37:45.957Z,4.80
2023-06-10T06:41:58.939Z,4.55
2023-06-10T06:46:11.594Z,5.00
2023-06-10T06:50:24.045Z,4.70
2023-06-10T06:54:36.526Z,4.70
2023-06-10T06:58:58.904Z,4.75
2023-06-10T07:03:11.382Z,4.28
2023-06-10T07:07:23.997Z,3.88
2023-06-10T07:11:46.330Z,4.13
2023-06-10T07:15:58.683Z,3.60
2023-06-10T07:20:11.710Z,3.83
2023-06-10T07:24:24.060Z,3.78
2023-06-10T07:28:36.441Z,4.00
2023-06-10T07:32:59.019Z,3.83
2023-06-10T07:37:11.493Z,4.47
2023-06-10T07:41:27.093Z,3.70
2023-06-10T07:45:46.626Z,3.75
2023-06-10T07:50:09.327Z,4.05
2023-06-10T07:54:31.844Z,3.63
2023-06-10T07:58:44.174Z,3.35
2023-06-10T08:02:58.385Z,3.42
2023-06-10T08:07:10.930Z,3.88
2023-06-10T08:11:23.512Z,3.10
2023-06-10T08:15:35.939Z,3.35
2023-06-10T08:19:49.839Z,3.67
2023-06-10T08:24:02.285Z,3.42
2023-06-10T08:28:15.876Z,3.33
2023-06-10T08:32:28.548Z,3.58
2023-06-10T08:36:40.979Z,3.78
2023-06-10T08:40:58.696Z,2.97
2023-06-10T08:45:14.954Z,2.67
2023-06-10T08:49:29.008Z,3.17
2023-06-10T08:53:55.610Z,2.95
2023-06-10T09:01:35.326Z,2.80
2023-06-10T09:05:47.855Z,3.28
2023-06-10T09:10:11.139Z,3.20
2023-06-10T09:14:24.762Z,2.70
2023-06-10T09:18:37.103Z,2.67
2023-06-10T09:22:51.140Z,2.58
2023-06-10T09:27:10.433Z,2.40
2023-06-10T09:31:33.709Z,2.78
2023-06-10T09:35:51.232Z,2.65
2023-06-10T09:40:08.353Z,2.30
2023-06-10T09:44:22.526Z,2.30
2023-06-10T09:48:43.773Z,2.47
2023-06-10T09:52:56.229Z,2.30
2023-06-10T09:57:12.128Z,2.63
2023-06-10T10:01:32.466Z,2.33
2023-06-10T10:05:44.948Z,2.30
2023-06-10T10:09:57.500Z,1.88
2023-06-10T10:14:10.867Z,2.33
2023-06-10T10:18:30.678Z,2.92
2023-06-10T10:22:45.253Z,2.50
2023-06-10T10:27:00.896Z,2.40
2023-06-10T10:31:17.043Z,2.28
2023-06-10T10:35:29.573Z,2.20
2023-06-10T10:39:42.052Z,2.00
2023-06-10T10:43:54.732Z,2.17
2023-06-10T10:48:13.659Z,2.20
2023-06-10T10:52:52.844Z,2.03
2023-06-10T10:57:12.794Z,2.30
2023-06-10T11:01:25.337Z,1.90
2023-06-10T11:05:49.652Z,2.10
2023-06-10T11:10:09.581Z,1.85
2023-06-10T11:14:33.427Z,2.35
2023-06-10T11:18:55.831Z,2.10
2023-06-10T11:23:08.263Z,2.35
2023-06-10T11:27:22.227Z,2.65
2023-06-10T11:31:40.556Z,2.90
2023-06-10T11:35:52.977Z,2.50
2023-06-10T11:40:05.915Z,2.40
2023-06-10T11:44:23.192Z,2.53
2023-06-10T11:48:36.120Z,1.98
2023-06-10T11:52:48.459Z,1.90
2023-06-10T11:57:02.236Z,1.90
2023-06-10T12:01:28.268Z,2.00
2023-06-10T12:06:00.537Z,1.70
2023-06-10T12:14:57.017Z,2.05
2023-06-10T12:19:19.649Z,2.03
2023-06-10T12:23:32.227Z,2.08
2023-06-10T12:28:02.495Z,1.90
2023-06-10T12:32:17.075Z,2.30
2023-06-10T12:36:29.554Z,2.25
2023-06-10T12:40:42.810Z,2.78
2023-06-10T12:45:06.064Z,2.20
2023-06-10T12:49:22.542Z,2.50
2023-06-10T12:53:34.944Z,2.50
2023-06-10T12:57:51.969Z,1.90
2023-06-10T13:02:04.516Z,2.28
2023-06-10T13:06:16.811Z,2.03
2023-06-10T13:10:29.474Z,2.20
2023-06-10T13:14:41.907Z,2.20
2023-06-10T13:18:55.625Z,2.28
2023-06-10T13:23:08.075Z,2.38
2023-06-10T13:27:20.446Z,2.60
2023-06-10T13:31:42.153Z,2.03
2023-06-10T13:35:54.475Z,2.13
2023-06-10T13:40:17.389Z,2.60
2023-06-10T13:44:32.786Z,2.42
2023-06-10T13:48:45.559Z,2.30
2023-06-10T13:52:57.972Z,2.13
2023-06-10T13:57:12.338Z,2.08
2023-06-10T14:01:24.755Z,2.03
2023-06-10T14:05:37.627Z,2.40
2023-06-10T14:09:50.116Z,2.65
2023-06-10T14:14:12.836Z,2.17
2023-06-10T14:18:25.197Z,1.83
2023-06-10T14:22:37.565Z,2.05
2023-06-10T14:26:58.985Z,1.90
2023-06-10T14:31:11.424Z,1.80
2023-06-10T14:35:24.120Z,2.00
2023-06-10T14:39:46.438Z,2.30
2023-06-10T14:43:58.935Z,2.10
2023-06-10T14:48:11.400Z,2.10
2023-06-10T14:52:23.782Z,2.00
2023-06-10T14:56:36.231Z,2.10
2023-06-10T15:00:49.878Z,2.03
2023-06-10T15:05:02.224Z,2.33
2023-06-10T15:09:14.902Z,1.85
2023-06-10T15:13:27.249Z,2.00
2023-06-10T15:17:39.694Z,2.05
2023-06-10T15:21:52.106Z,2.20
2023-06-10T15:26:05.162Z,2.15
2023-06-10T15:30:17.540Z,2.30
2023-06-10T15:34:29.973Z,2.30
2023-06-10T15:38:44.015Z,2.63
2023-06-10T15:42:56.402Z,2.40
2023-06-10T15:47:18.772Z,2.70
2023-06-10T15:51:43.753Z,2.70
2023-06-10T15:55:59.197Z,2.53
2023-06-10T16:00:12.221Z,2.50
2023-06-10T16:04:25.166Z,2.22
2023-06-10T16:08:37.607Z,2.33
2023-06-10T16:12:50.074Z,1.98
2023-06-10T16:17:02.659Z,2.10
2023-06-10T16:21:15.115Z,1.90
2023-06-10T16:25:29.575Z,1.90
2023-06-10T16:29:41.991Z,2.28
2023-06-10T16:33:54.343Z,2.22
2023-06-10T16:38:07.013Z,2.17
2023-06-10T16:42:19.457Z,2.13
2023-06-10T16:46:32.018Z,2.50
2023-06-10T16:50:44.658Z,2.22
2023-06-10T16:54:57.431Z,2.10
2023-06-10T16:59:11.278Z,2.28
2023-06-10T17:03:23.633Z,1.80
2023-06-10T17:07:46.007Z,2.28
2023-06-10T17:11:58.735Z,1.50
2023-06-10T17:16:11.295Z,1.60
2023-06-10T17:20:34.580Z,1.77
2023-06-10T17:24:46.952Z,2.10
2023-06-10T17:28:59.270Z,2.20
2023-06-10T17:33:11.666Z,2.40
2023-06-10T17:37:24.075Z,2.40
2023-06-10T17:41:36.383Z,2.38
2023-06-10T17:45:50.510Z,2.30
2023-06-10T17:50:03.326Z,2.35
2023-06-10T17:54:15.712Z,2.22
2023-06-10T17:58:27.994Z,2.35
2023-06-10T18:02:40.326Z,2.35
2023-06-10T18:06:53.317Z,2.40
2023-06-10T18:11:15.714Z,2.25
2023-06-10T18:15:38.167Z,2.55
2023-06-10T18:19:50.564Z,2.28
2023-06-10T18:24:03.114Z,2.65
2023-06-10T18:28:15.631Z,3.10
2023-06-10T18:32:28.064Z,2.97
2023-06-10T18:36:40.416Z,3.22
2023-06-10T18:40:53.810Z,2.90
2023-06-10T18:45:06.668Z,2.75
2023-06-10T18:49:19.012Z,2.72
2023-06-10T18:53:31.411Z,2.58
2023-06-10T18:57:53.741Z,3.22
2023-06-10T19:02:06.633Z,2.92
2023-06-10T19:06:18.987Z,2.70
2023-06-10T19:10:32.534Z,2.75
2023-06-10T19:14:45.047Z,2.78
2023-06-10T19:18:57.971Z,2.58
2023-06-10T19:23:11.659Z,2.85
2023-06-10T19:27:24.008Z,3.05
2023-06-10T19:31:36.656Z,2.90
2023-06-10T19:35:59.136Z,3.42
2023-06-10T19:40:11.925Z,3.70
2023-06-10T19:44:24.246Z,3.38
2023-06-10T19:48:36.716Z,3.67
2023-06-10T19:52:53.171Z,3.95
2023-06-10T19:57:15.485Z,3.42
2023-06-10T20:01:37.956Z,3.92
2023-06-10T20:06:00.346Z,3.63
2023-06-10T20:10:14.123Z,4.20
2023-06-10T20:14:26.729Z,4.38
2023-06-10T20:18:39.804Z,3.63
2023-06-10T20:22:54.791Z,3.50
2023-06-10T20:27:07.208Z,4.03
2023-06-10T20:31:21.196Z,3.97
2023-06-10T20:35:33.706Z,3.53
2023-06-10T20:39:46.115Z,3.63
2023-06-10T20:43:59.491Z,3.38
2023-06-10T20:48:12.133Z,3.45
2023-06-10T20:52:24.542Z,3.47
2023-06-10T20:56:37.077Z,3.95
2023-06-10T21:00:49.482Z,3.70
2023-06-10T21:05:01.991Z,3.60
2023-06-10T21:09:14.358Z,3.40
2023-06-10T21:13:27.099Z,3.88
2023-06-10T21:17:39.782Z,3.60
2023-06-10T21:21:52.079Z,3.95
2023-06-10T21:26:07.178Z,4.40
2023-06-10T21:30:19.689Z,4.25
2023-06-10T21:34:37.191Z,4.15
2023-06-10T21:38:50.027Z,4.75
2023-06-10T21:43:02.304Z,4.47
2023-06-10T21:47:14.701Z,4.03
2023-06-10T21:51:27.020Z,3.97
2023-06-10T21:55:39.379Z,3.90
2023-06-10T21:59:52.621Z,3.67
2023-06-10T22:04:05.162Z,3.60
2023-06-10T22:08:17.711Z,3.85
2023-06-10T22:12:40.024Z,3.90
2023-06-10T22:16:52.789Z,3.33
2023-06-10T22:21:05.303Z,4.05
2023-06-10T22:25:17.687Z,3.83
2023-06-10T22:29:30.602Z,3.40
2023-06-10T22:33:42.987Z,3.50
2023-06-10T22:37:55.320Z,4.88
2023-06-10T22:42:10.961Z,3.97
2023-06-10T22:46:23.869Z,3.80
2023-06-10T22:50:36.345Z,3.92
2023-06-10T22:54:48.751Z,3.83
2023-06-10T22:59:04.277Z,4.18
2023-06-10T23:03:26.811Z,3.65
2023-06-10T23:07:43.666Z,3.80
2023-06-10T23:11:57.411Z,3.83
2023-06-10T23:16:09.856Z,4.00
2023-06-10T23:20:22.561Z,4.15
2023-06-10T23:24:35.996Z,4.15
2023-06-10T23:28:58.284Z,3.90
2023-06-10T23:33:12.214Z,4.15
2023-06-10T23:37:24.606Z,4.63
2023-06-10T23:41:37.354Z,3.63
2023-06-10T23:45:49.733Z,3.85
2023-06-10T23:50:02.074Z,3.85
2023-06-10T23:54:14.905Z,4.15
2023-06-10T23:58:27.212Z,3.83
